Pleasant Valley, Missouri
Current Conditions -  °F | °C
As of 4:35 PM on Monday 24 Nov 2014 (Local Time) from KGPH Reporting Station
Overcast Overcast  
Wind Chill: 29°   Ceiling: 4300
Heat Index: 36°   Visibility: 10mi
Dew Point: 25°   Wind: 9mph
Humidity: 65%   Direction: 300°WNW
Pressure: 29.89"   Gusts: NA
Location:  39.2642°N, 94.4209°W
Report Text: KGPH 242235Z AUTO 30008KT 10SM OVC043 02/M04 A2989 RMK AO2
Loading
Personal Weather Stations






























Interactive Weather Map New forecast layout! Learn more

10-Day Weather Forecast

Advertisements
Track Severe Weather on mobile